createdAt,value
2022-08-26T04:41:57.634Z,75.112
2022-08-26T04:44:12.691Z,76.007004
2022-08-26T04:46:28.137Z,76.875
2022-08-26T04:48:42.434Z,76.839996
2022-08-26T04:50:56.777Z,76.320999
2022-08-26T04:53:11.127Z,75.771004
2022-08-26T04:55:29.038Z,75.252998
2022-08-26T04:57:42.887Z,74.763
2022-08-26T04:59:57.237Z,74.271004
2022-08-26T05:02:11.637Z,73.977997
2022-08-26T05:04:26.131Z,73.567001
2022-08-26T05:06:40.399Z,73.123001
2022-08-26T05:08:54.763Z,72.723999
2022-08-26T05:11:10.153Z,72.478996
2022-08-26T05:13:24.513Z,72.164001
2022-08-26T05:15:38.942Z,71.967003
2022-08-26T05:17:53.282Z,72.038002
2022-08-26T05:20:07.654Z,71.888
2022-08-26T05:22:22.996Z,71.807999
2022-08-26T05:24:37.365Z,71.839996
2022-08-26T05:26:52.730Z,71.594002
2022-08-26T05:29:09.056Z,71.371002
2022-08-26T05:31:23.536Z,71.438004
2022-08-26T05:33:37.801Z,71.338997
2022-08-26T05:35:53.129Z,71.530998
2022-08-26T05:38:11.887Z,71.292
2022-08-26T05:40:23.853Z,71.102997
2022-08-26T05:42:38.227Z,70.874001
2022-08-26T05:44:53.649Z,70.810997
2022-08-26T05:47:07.962Z,70.681
2022-08-26T05:49:22.461Z,70.612
2022-08-26T05:51:37.623Z,70.574997
2022-08-26T05:53:54.704Z,70.539001
2022-08-26T05:56:06.421Z,70.452003
2022-08-26T05:58:20.826Z,70.318001
2022-08-26T06:00:36.189Z,70.091003
2022-08-26T06:02:53.214Z,70.050003
2022-08-26T06:05:07.703Z,70.097
2022-08-26T06:07:21.998Z,70.292
2022-08-26T06:09:36.302Z,70.361
2022-08-26T06:11:50.648Z,70.078003
2022-08-26T06:14:04.977Z,70.441002
2022-08-26T06:16:19.389Z,70.412003
2022-08-26T06:18:33.740Z,70.296997
2022-08-26T06:20:49.629Z,70.383003
2022-08-26T06:23:05.534Z,70.323997
2022-08-26T06:25:19.767Z,70.252998
2022-08-26T06:27:36.101Z,70.379997
2022-08-26T06:29:50.472Z,70.278999
2022-08-26T06:32:04.854Z,70.258003
2022-08-26T06:34:20.201Z,70.147003
2022-08-26T06:36:36.539Z,70.010002
2022-08-26T06:38:51.883Z,69.999001
2022-08-26T06:41:06.319Z,69.985001
2022-08-26T06:43:20.660Z,69.963997
2022-08-26T06:45:34.984Z,70.245003
2022-08-26T06:47:50.362Z,70.264999
2022-08-26T06:50:05.736Z,70.064003
2022-08-26T06:52:24.233Z,70.112999
2022-08-26T06:54:35.510Z,70.280998
2022-08-26T06:56:50.879Z,70.391998
2022-08-26T06:59:05.182Z,70.464996
2022-08-26T07:01:19.657Z,70.621002
2022-08-26T07:03:35.052Z,70.550003
2022-08-26T07:05:50.251Z,70.692001
2022-08-26T07:08:07.567Z,70.874001
2022-08-26T07:10:22.938Z,70.814003
2022-08-26T07:12:36.295Z,70.731003
2022-08-26T07:14:51.636Z,70.561996
2022-08-26T07:17:09.243Z,70.412003
2022-08-26T07:19:28.553Z,70.516998
2022-08-26T07:21:41.789Z,70.510002
2022-08-26T07:24:01.346Z,70.475998
2022-08-26T07:26:12.501Z,70.405998
2022-08-26T07:28:26.853Z,70.296997
2022-08-26T07:30:41.369Z,70.338997
2022-08-26T07:32:55.641Z,70.364998
2022-08-26T07:35:10.017Z,70.481003
2022-08-26T07:37:24.409Z,70.795998
2022-08-26T07:39:41.788Z,70.608002
2022-08-26T07:41:56.155Z,70.612
2022-08-26T07:44:10.488Z,70.553001
2022-08-26T07:46:27.368Z,70.545998
2022-08-26T07:48:41.157Z,70.568001
2022-08-26T07:50:57.515Z,70.456001
2022-08-26T07:53:13.326Z,70.535004
2022-08-26T07:55:28.695Z,70.718002
2022-08-26T07:57:45.054Z,70.646004
2022-08-26T07:59:59.439Z,70.709999
2022-08-26T08:02:13.830Z,70.694
2022-08-26T08:04:28.230Z,70.727997
2022-08-26T08:06:43.818Z,70.800003
2022-08-26T08:08:58.274Z,70.742996
2022-08-26T08:11:15.171Z,70.613998
2022-08-26T08:13:30.414Z,70.600998
2022-08-26T08:15:44.792Z,70.386002
2022-08-26T08:18:02.124Z,70.360001
2022-08-26T08:20:17.485Z,70.152
2022-08-26T08:22:32.899Z,70.211998
2022-08-26T08:24:49.830Z,70.452003
2022-08-26T08:27:03.644Z,70.251999
2022-08-26T08:29:19.691Z,70.003998
2022-08-26T08:32:03.025Z,70.029999
2022-08-26T08:33:51.401Z,70.005997
2022-08-26T08:36:06.812Z,69.732002
2022-08-26T08:38:23.118Z,69.860001
2022-08-26T08:40:38.494Z,69.783997
2022-08-26T08:42:54.823Z,69.862
2022-08-26T08:45:09.234Z,70.083
2022-08-26T08:47:23.589Z,70.035004
2022-08-26T08:49:37.944Z,69.603996
2022-08-26T08:51:53.211Z,69.732002
2022-08-26T08:54:08.534Z,69.823997
2022-08-26T08:56:22.949Z,70.012001
2022-08-26T08:58:38.304Z,69.931
2022-08-26T09:00:53.690Z,70.191002
2022-08-26T09:03:08.042Z,70.379997
2022-08-26T09:05:22.445Z,70.614998
2022-08-26T09:07:36.988Z,71.123001
2022-08-26T09:09:51.780Z,71.335999
2022-08-26T09:12:06.160Z,71.436996
2022-08-26T09:14:21.537Z,71.540001
2022-08-26T09:16:37.093Z,71.802002
2022-08-26T09:18:52.481Z,71.833
2022-08-26T09:21:06.854Z,72.057999
2022-08-26T09:23:21.246Z,71.768997
2022-08-26T09:25:36.620Z,72.017998
2022-08-26T09:27:52.022Z,72.314003
2022-08-26T09:30:07.375Z,72.129997
2022-08-26T09:32:22.683Z,71.823997
2022-08-26T09:34:37.014Z,71.638
2022-08-26T09:36:52.391Z,71.459999
2022-08-26T09:39:06.755Z,71.304001
2022-08-26T09:41:21.130Z,71.184998
2022-08-26T09:43:35.465Z,71.022003
2022-08-26T09:45:52.118Z,70.830002
2022-08-26T09:48:08.175Z,70.625
2022-08-26T09:50:27.055Z,70.690002
2022-08-26T09:52:42.661Z,70.682999
2022-08-26T09:54:55.213Z,70.735001
2022-08-26T09:57:10.630Z,70.593002
2022-08-26T09:59:24.982Z,70.403
2022-08-26T10:01:41.417Z,70.393997
2022-08-26T10:03:56.688Z,70.355003
2022-08-26T10:06:12.059Z,70.573997
2022-08-26T10:08:26.391Z,70.703003
2022-08-26T10:10:40.782Z,70.960999
2022-08-26T10:12:57.138Z,70.848999
2022-08-26T10:15:11.857Z,71.107002
2022-08-26T10:17:26.793Z,70.912003
2022-08-26T10:19:56.399Z,71.038002
2022-08-26T10:21:59.390Z,70.860001
2022-08-26T10:24:13.749Z,70.983002
2022-08-26T10:26:29.112Z,70.973
2022-08-26T10:28:44.449Z,71.263
2022-08-26T10:30:59.821Z,71.082001
2022-08-26T10:33:14.203Z,71.161003
2022-08-26T10:35:29.569Z,70.860001
2022-08-26T10:37:43.975Z,70.613998
2022-08-26T10:39:59.464Z,70.293999
2022-08-26T10:42:13.746Z,70.296997
2022-08-26T10:44:29.104Z,70.241997
2022-08-26T10:46:43.434Z,70.064003
2022-08-26T10:48:59.886Z,69.810997
2022-08-26T10:51:13.097Z,69.768997
2022-08-26T10:53:28.410Z,69.68
2022-08-26T10:55:43.781Z,69.767998
2022-08-26T10:57:58.104Z,69.621002
2022-08-26T11:00:15.476Z,69.507004
2022-08-26T11:02:29.813Z,69.717003
2022-08-26T11:04:47.628Z,69.616997
2022-08-26T11:07:00.544Z,69.649002
2022-08-26T11:09:16.890Z,69.751999
2022-08-26T11:11:34.208Z,69.817001
2022-08-26T11:13:48.563Z,69.850998
2022-08-26T11:16:02.951Z,69.880997
2022-08-26T11:18:17.282Z,69.806
2022-08-26T11:20:33.638Z,69.68
2022-08-26T11:22:50.919Z,69.712997
2022-08-26T11:25:05.265Z,69.571999
2022-08-26T11:27:21.590Z,69.565002
2022-08-26T11:29:35.942Z,69.505997
2022-08-26T11:31:50.392Z,69.532997
2022-08-26T11:34:05.619Z,69.571999
2022-08-26T11:36:21.968Z,69.522003
2022-08-26T11:38:38.283Z,69.475998
2022-08-26T11:40:52.664Z,69.540001
2022-08-26T11:43:07.044Z,69.332001
2022-08-26T11:45:21.445Z,69.07
2022-08-26T11:47:35.752Z,69.338997
2022-08-26T11:49:50.131Z,69.405998
2022-08-26T11:52:05.487Z,69.482002
2022-08-26T11:54:31.879Z,69.565002
2022-08-26T11:56:37.187Z,69.633003
2022-08-26T11:58:51.558Z,69.639
2022-08-26T12:01:09.690Z,69.519997
2022-08-26T12:03:22.966Z,69.418999
2022-08-26T12:05:36.596Z,69.269997
2022-08-26T12:07:50.989Z,69.128998
2022-08-26T12:10:05.363Z,69.055
2022-08-26T12:12:19.755Z,68.818001
2022-08-26T12:14:35.072Z,68.682999
2022-08-26T12:16:50.482Z,68.573997
2022-08-26T12:19:04.762Z,68.511002
2022-08-26T12:21:21.086Z,68.176003
2022-08-26T12:23:36.652Z,68.035004
2022-08-26T12:25:52.747Z,67.940002
2022-08-26T12:28:07.322Z,67.857002
2022-08-26T12:30:24.472Z,67.932999
2022-08-26T12:32:51.142Z,67.963997
2022-08-26T12:34:57.196Z,67.453003
2022-08-26T12:37:11.525Z,67.200996
2022-08-26T12:39:27.839Z,67.317001
2022-08-26T12:41:42.234Z,67.408997
2022-08-26T12:43:56.564Z,67.625
2022-08-26T12:46:10.933Z,68.111
2022-08-26T12:48:25.313Z,67.988998
2022-08-26T12:50:39.660Z,67.805
2022-08-26T12:52:54.067Z,68.098
2022-08-26T12:55:08.479Z,68.485001
2022-08-26T12:57:22.837Z,68.651001
2022-08-26T12:59:37.210Z,68.749001
2022-08-26T13:01:51.746Z,68.851997
2022-08-26T13:04:06.940Z,69.042999
2022-08-26T13:06:21.305Z,69.343002
2022-08-26T13:08:35.648Z,69.540001
2022-08-26T13:10:50.057Z,69.792
2022-08-26T13:13:04.434Z,69.811996
2022-08-26T13:15:18.842Z,69.957001
2022-08-26T13:17:33.174Z,70.038002
2022-08-26T13:19:48.515Z,70.233002
2022-08-26T13:22:03.943Z,70.293999
2022-08-26T13:24:18.335Z,70.416
2022-08-26T13:26:32.664Z,70.538002
2022-08-26T13:28:48.612Z,70.706001
2022-08-26T13:31:04.369Z,70.994003
2022-08-26T13:33:18.665Z,71.028
2022-08-26T13:35:33.056Z,71.124001
2022-08-26T13:37:47.416Z,71.292999
2022-08-26T13:40:01.892Z,71.456001
2022-08-26T13:42:16.216Z,71.632004
2022-08-26T13:44:30.608Z,71.321999
2022-08-26T13:48:59.311Z,71.254997
2022-08-26T13:51:13.701Z,71.336998
2022-08-26T13:53:28.098Z,71.702003
2022-08-26T13:55:42.439Z,72.014999
2022-08-26T13:57:56.847Z,71.934998
2022-08-26T14:00:11.332Z,72.191002
2022-08-26T14:02:25.646Z,72.184998
2022-08-26T14:04:39.997Z,72.281998
2022-08-26T14:06:54.409Z,72.525002
2022-08-26T14:09:08.812Z,72.289001
2022-08-26T14:11:23.134Z,72.365997
2022-08-26T14:13:37.525Z,72.480003
2022-08-26T14:15:52.055Z,72.453003
2022-08-26T14:18:06.573Z,72.418999
2022-08-26T14:20:21.695Z,72.182999
2022-08-26T14:22:40.454Z,72.277
2022-08-26T14:24:54.382Z,72.308998
2022-08-26T14:27:08.730Z,72.032997
2022-08-26T14:29:23.073Z,72.190002
2022-08-26T14:31:37.525Z,72.132004
2022-08-26T14:33:51.874Z,72.100998
2022-08-26T14:36:06.240Z,72.181
2022-08-26T14:38:20.578Z,72.376999
2022-08-26T14:40:36.741Z,72.376999
2022-08-26T14:42:52.710Z,72.336998
2022-08-26T14:45:06.185Z,72.291
2022-08-26T14:47:20.551Z,72.637001
2022-08-26T14:49:34.859Z,72.723999
2022-08-26T14:51:49.211Z,72.830002
2022-08-26T14:54:03.655Z,72.616997
2022-08-26T14:56:18.071Z,72.944
2022-08-26T14:58:34.725Z,73
2022-08-26T15:00:46.822Z,73.230003
2022-08-26T15:03:02.324Z,73.196999
2022-08-26T15:05:16.551Z,72.918999
2022-08-26T15:07:30.912Z,73.043999
2022-08-26T15:09:45.299Z,72.978996
2022-08-26T15:11:59.614Z,72.891998
2022-08-26T15:14:14.847Z,72.791
2022-08-26T15:16:30.331Z,72.805
2022-08-26T15:18:44.706Z,72.824997
2022-08-26T15:20:59.372Z,72.724998
2022-08-26T15:23:13.743Z,72.663002
2022-08-26T15:25:30.108Z,72.327003
2022-08-26T15:27:44.515Z,72.306999
2022-08-26T15:29:58.914Z,72.296997
2022-08-26T15:32:13.276Z,72.427002
2022-08-26T15:34:27.662Z,72.531998
2022-08-26T15:36:42.043Z,72.75
2022-08-26T15:38:56.455Z,72.827003
2022-08-26T15:41:10.804Z,72.635002
2022-08-26T15:43:28.916Z,72.875999
2022-08-26T15:45:40.519Z,72.911003
2022-08-26T15:48:01.462Z,73.009003
2022-08-26T15:50:12.268Z,72.989998
2022-08-26T15:52:26.624Z,72.986
2022-08-26T15:54:41.080Z,73.075996
2022-08-26T15:56:55.411Z,73.002998
2022-08-26T15:59:09.793Z,73.103996
2022-08-26T16:01:24.176Z,73.130997
2022-08-26T16:03:39.520Z,72.973
2022-08-26T16:05:54.925Z,73.123001
2022-08-26T16:08:08.418Z,73.096001
2022-08-26T16:10:22.607Z,72.839996
2022-08-26T16:12:36.973Z,72.801003
2022-08-26T16:14:51.347Z,72.886002
2022-08-26T16:17:06.722Z,72.786003
2022-08-26T16:19:21.067Z,73.011002
2022-08-26T16:21:35.426Z,73.161003
2022-08-26T16:23:49.791Z,73.103996
2022-08-26T16:26:04.209Z,73.297997
2022-08-26T16:28:24.981Z,73.450996
2022-08-26T16:30:36.854Z,73.070999
2022-08-26T16:32:51.265Z,72.888
2022-08-26T16:35:05.623Z,72.894997
2022-08-26T16:37:20.941Z,72.973
2022-08-26T16:39:35.360Z,72.931999
2022-08-26T16:41:52.652Z,72.803001
2022-08-26T16:44:07.032Z,72.708
2022-08-26T16:46:21.449Z,72.708
2022-08-26T16:48:35.914Z,72.986
2022-08-26T16:50:50.282Z,72.879997
2022-08-26T16:53:05.639Z,73.07
2022-08-26T16:55:21.122Z,73.005997
2022-08-26T16:57:35.619Z,72.696999
2022-08-26T16:59:50.179Z,72.623001
2022-08-26T17:02:04.702Z,72.597
2022-08-26T17:04:20.528Z,72.115997
2022-08-26T17:06:34.871Z,71.82
2022-08-26T17:08:49.376Z,71.596001
2022-08-26T17:11:04.788Z,71.341003
2022-08-26T17:13:24.067Z,71.074997
2022-08-26T17:15:36.759Z,70.898003
2022-08-26T17:17:51.180Z,71.069
2022-08-26T17:20:05.576Z,70.862999
2022-08-26T17:22:20.267Z,70.829002
2022-08-26T17:24:34.647Z,71.021004
2022-08-26T17:26:50.744Z,70.880997
2022-08-26T17:29:06.469Z,70.603996
2022-08-26T17:31:20.971Z,70.467003
2022-08-26T17:33:35.282Z,70.384003
2022-08-26T17:35:49.687Z,70.478996
2022-08-26T17:38:04.145Z,70.468002
2022-08-26T17:40:18.584Z,70.211998
2022-08-26T17:42:32.886Z,70.140999
2022-08-26T17:44:47.263Z,70.147003
2022-08-26T17:47:01.642Z,69.922997
2022-08-26T17:49:16.046Z,69.869003
2022-08-26T17:51:30.463Z,69.733002
2022-08-26T17:53:44.854Z,69.571999
2022-08-26T17:55:59.247Z,69.940002
2022-08-26T17:58:14.575Z,69.810997
2022-08-26T18:00:28.431Z,69.684998
2022-08-26T18:02:42.792Z,69.510002
2022-08-26T18:04:57.228Z,69.871002
2022-08-26T18:07:12.595Z,69.859001
2022-08-26T18:09:27.067Z,69.703003
2022-08-26T18:11:41.472Z,69.785004
2022-08-26T18:13:55.835Z,69.795998
2022-08-26T18:16:10.332Z,70.028999
2022-08-26T18:18:24.883Z,70.32
2022-08-26T18:20:39.241Z,70.514999
2022-08-26T18:22:53.686Z,70.619003
2022-08-26T18:25:08.148Z,70.823997
2022-08-26T18:27:23.050Z,71.07
2022-08-26T18:29:37.472Z,71.278
2022-08-26T18:31:54.911Z,71.439003
2022-08-26T18:34:09.476Z,71.503998
2022-08-26T18:36:23.863Z,71.428001
2022-08-26T18:38:38.289Z,71.596001
2022-08-26T18:40:54.662Z,71.739998
2022-08-26T18:43:09.378Z,71.569
2022-08-26T18:45:24.087Z,71.665001
2022-08-26T18:47:38.617Z,71.728996
2022-08-26T18:49:53.004Z,71.650002
2022-08-26T18:52:07.600Z,71.690002
2022-08-26T18:54:22.242Z,71.683998
2022-08-26T18:56:37.252Z,71.547997
2022-08-26T18:58:51.802Z,71.591003
2022-08-26T19:01:06.313Z,71.782997
2022-08-26T19:03:20.826Z,71.959
2022-08-26T19:05:35.510Z,72.022003
2022-08-26T19:07:50.280Z,71.934998
2022-08-26T19:10:05.299Z,71.733002
2022-08-26T19:12:19.178Z,71.986
2022-08-26T19:14:35.965Z,72.068001
2022-08-26T19:16:50.497Z,72.068001
2022-08-26T19:19:05.420Z,71.981003
2022-08-26T19:21:21.104Z,71.974998
2022-08-26T19:23:35.703Z,72.139
2022-08-26T19:25:58.493Z,72.235001
